• Join FlightAware (Why Join?)
  • Login
  • US Flag 
05:30AM EDT


 

Airport Tracker/Info


-or-


 

Live Flight TrackerFlight Track Log ✈ ACA553 ✈ 09-May-2013 ✈ KLAX - CYVR

Flight Track Log - Related Links

Times and Time Zones

All times are in EDT time to prevent confusion due to time zone crossing. See the ACA553 flight status page for this flight to view local times or setup timezone preferences in your user account.

Time Position Orientation Groundspeed Altitude Reporting Facility
EDT Latitude Longitude Course Direction KTS MPH feet Rate Location/Type
03:23PM 33.9456 -118.4594 331° Northwest 167 192 1,500  Level Los Angeles Center
03:24PM 33.9408 -118.5361 266° West 211 243 3,300 2,160 Climbing Los Angeles Center
03:25PM 33.9347 -118.6258 265° West 267 307 6,000 2,160 Climbing Los Angeles Center
03:26PM 34.1132 -118.6434 22° Northeast  Level FlightAware Approximate
03:26PM 33.9894 -118.6894 316° Northwest 284 327 7,900  Level Los Angeles Center
03:27PM 34.2143 -118.6000 North  Level FlightAware Approximate
03:27PM 34.0644 -118.6853 North 285 328 9,000  Level Los Angeles Center
03:28PM 34.3197 -118.6131 331° Northwest  Level FlightAware Approximate
03:28PM 34.1175 -118.6281 42° Northeast 279 321 11,600  Level Los Angeles Center
03:30PM 34.1842 -118.5783 32° Northeast 296 341 14,200 2,160 Climbing Los Angeles Center
03:31PM 34.3092 -118.6294 341° North 347 399 16,600 2,160 Climbing Los Angeles Center
03:32PM 34.4042 -118.6686 341° North 362 417 18,800 1,980 Climbing Los Angeles Center
03:33PM 34.5022 -118.7117 340° North 373 429 20,800 1,860 Climbing Los Angeles Center
03:34PM 34.6017 -118.7583 339° North 384 442 22,700 1,740 Climbing Los Angeles Center
03:35PM 34.7025 -118.8114 337° Northwest 396 456 24,400 1,500 Climbing Los Angeles Center
03:36PM 34.8058 -118.8628 338° Northwest 398 458 25,800 1,680 Climbing Los Angeles Center
03:37PM 34.9261 -118.8878 350° North 410 472 27,900 1,800 Climbing Los Angeles Center
03:38PM 35.0586 -118.9156 350° North 406 467 29,600 1,260 Climbing Los Angeles Center
03:39PM 35.1711 -118.9392 350° North 409 471 30,600 1,380 Climbing Los Angeles Center
03:40PM 35.2856 -118.9633 350° North 416 479 32,500 1,380 Climbing Los Angeles Center
03:41PM 35.3967 -118.9864 350° North 411 473 33,500 720 Climbing Los Angeles Center
03:42PM 35.5058 -119.0106 350° North 406 467 34,000 240 Climbing Los Angeles Center
03:43PM 35.6367 -119.0394 350° North 401 461 34,000 480 Level Los Angeles Center
03:44PM 35.7653 -119.0664 350° North 398 458 35,200 600 Climbing Oakland Center
03:45PM 35.8758 -119.0906 350° North 402 463 35,500 360 Climbing Oakland Center
03:46PM 35.9897 -119.1156 350° North 412 474 36,000 240 Climbing Oakland Center
03:47PM 36.1036 -119.1414 350° North 416 479 36,000  Level Oakland Center
03:49PM 36.2214 -119.1667 350° North 426 490 36,000  Level Oakland Center
03:50PM 36.3636 -119.1967 350° North 434 499 36,000  Level Oakland Center
03:51PM 36.4808 -119.2256 349° North 435 501 36,000  Level Oakland Center
03:52PM 36.5983 -119.2486 351° North 430 495 36,000  Level Oakland Center
03:53PM 36.7164 -119.2753 350° North 432 497 36,000  Level Oakland Center
03:54PM 36.8339 -119.3036 349° North 434 499 36,000  Level Oakland Center
03:55PM 36.9508 -119.3289 350° North 428 493 36,000  Level Oakland Center
03:56PM 37.0678 -119.3558 350° North 428 493 36,000  Level Oakland Center
03:57PM 37.1842 -119.3831 349° North 426 490 36,000  Level Oakland Center
03:58PM 37.3242 -119.4142 350° North 426 490 36,000  Level Oakland Center
03:59PM 37.4406 -119.4392 350° North 426 490 36,000  Level Oakland Center
04:00PM 37.5567 -119.4369 North 430 495 36,000  Level Oakland Center
04:01PM 37.6786 -119.4031 12° North 424 488 36,000  Level Oakland Center
04:02PM 37.7931 -119.3739 11° North 421 484 36,000  Level Oakland Center
04:03PM 37.9072 -119.3453 11° North 419 482 36,000  Level Oakland Center
04:04PM 38.0264 -119.3331 North 432 497 36,000  Level Oakland Center
04:05PM 38.1550 -119.3650 349° North 436 502 36,000  Level Oakland Center
04:06PM 38.2736 -119.3964 348° North 434 499 36,000  Level Oakland Center
04:07PM 38.3931 -119.4281 348° North 436 502 36,000  Level Oakland Center
04:08PM 38.5111 -119.4578 349° North 433 498 36,000  Level Oakland Center
04:09PM 38.6322 -119.4892 349° North 439 505 36,000  Level Oakland Center
04:10PM 38.7514 -119.5197 349° North 436 502 36,000 360 Level Oakland Center
04:11PM 38.8706 -119.5517 348° North 437 503 36,800 960 Climbing Oakland Center
04:12PM 39.0097 -119.5875 349° North 426 490 38,000 540 Climbing Oakland Center
04:13PM 39.1250 -119.6175 349° North 422 486 38,000  Level Oakland Center
04:14PM 39.2419 -119.6483 348° North 423 487 38,000  Level Oakland Center
04:15PM 39.3606 -119.6797 348° North 430 495 38,000  Level Oakland Center
04:16PM 39.4781 -119.7103 349° North 428 493 38,000  Level Oakland Center
04:17PM 39.5967 -119.7422 348° North 430 495 38,000  Level Oakland Center
04:18PM 39.7136 -119.7733 348° North 429 494 38,000  Level Oakland Center
04:19PM 39.8300 -119.8053 348° North 427 491 38,000  Level Oakland Center
04:20PM 39.9489 -119.8369 348° North 432 497 38,000  Level Oakland Center
04:21PM 40.0653 -119.8675 349° North 428 493 38,000  Level Oakland Center
04:22PM 40.1811 -119.8992 348° North 425 489 38,000  Level Oakland Center
04:23PM 40.3236 -119.9372 348° North 437 503 38,000  Level Oakland Center
04:24PM 40.4400 -119.9681 349° North 428 493 38,000  Level Oakland Center
04:25PM 40.5506 -119.9997 348° North 429 494 38,000  Level Oakland Center
04:26PM 40.6656 -120.0339 347° North 426 490 38,000  Level Oakland Center
04:27PM 40.7833 -120.0644 349° North 429 494 38,000  Level Oakland Center
04:28PM 40.8994 -120.0975 348° North 432 497 38,000  Level Oakland Center
04:29PM 41.0169 -120.1272 349° North 430 495 38,000  Level Oakland Center
04:31PM 41.1525 -120.1686 347° North 422 486 38,000  Level Oakland Center
04:32PM 41.2678 -120.2003 348° North 422 486 38,000  Level Oakland Center
04:33PM 41.3831 -120.2317 348° North 424 488 38,000  Level Oakland Center
04:34PM 41.4978 -120.2653 348° North 424 488 38,000  Level Oakland Center
04:35PM 41.6136 -120.2956 349° North 424 488 38,000  Level Seattle Center
04:36PM 41.7511 -120.3356 348° North 425 489 38,000  Level Seattle Center
04:37PM 41.8669 -120.3672 348° North 427 491 38,000  Level Seattle Center
04:38PM 41.9819 -120.4003 348° North 424 488 38,000  Level Seattle Center
04:39PM 42.0967 -120.4333 348° North 423 487 38,000  Level Seattle Center
04:40PM 42.2125 -120.4661 348° North 425 489 38,000  Level Seattle Center
04:41PM 42.3267 -120.4992 348° North 423 487 38,000  Level Seattle Center
04:42PM 42.4425 -120.5314 348° North 425 489 38,000  Level Seattle Center
04:43PM 42.5581 -120.5658 348° North 426 490 38,000  Level Seattle Center
04:44PM 42.6722 -120.5986 348° North 423 487 38,000  Level Seattle Center
04:45PM 42.7872 -120.6322 348° North 422 486 38,000  Level Seattle Center
04:46PM 42.9258 -120.6733 348° North 426 490 38,000  Level Seattle Center
04:47PM 43.0417 -120.7061 348° North 426 490 38,000  Level Seattle Center
04:48PM 43.1561 -120.7411 347° North 424 488 38,000  Level Seattle Center
04:49PM 43.2708 -120.7739 348° North 423 487 38,000  Level Seattle Center
04:50PM 43.3867 -120.8058 349° North 424 488 38,000  Level Seattle Center
04:51PM 43.5017 -120.8417 347° North 425 489 38,000  Level Seattle Center
04:52PM 43.6214 -120.8758 348° North 424 488 38,000  Level Seattle Center
04:53PM 43.7375 -120.9103 348° North 424 488 38,000  Level Seattle Center
04:54PM 43.8533 -120.9472 347° North 425 489 38,000  Level Seattle Center
04:55PM 43.9683 -120.9806 348° North 422 486 38,000  Level Seattle Center
04:56PM 44.0842 -121.0167 347° North 425 489 38,000  Level Seattle Center
04:57PM 44.1992 -121.0514 348° North 424 488 38,000  Level Seattle Center
04:58PM 44.3189 -121.0897 347° North 435 501 38,000  Level Seattle Center
04:59PM 44.4544 -121.1303 348° North 427 491 38,000  Level Seattle Center
05:00PM 44.5683 -121.1667 347° North 423 487 38,000  Level Seattle Center
05:01PM 44.6636 -121.1961 348° North 423 487 38,000  Level Seattle Center
05:02PM 44.8022 -121.2386 348° North 424 488 38,000  Level Seattle Center
05:03PM 44.9172 -121.2747 347° North 423 487 38,000  Level Seattle Center
05:04PM 45.0322 -121.3119 347° North 423 487 38,000  Level Seattle Center
05:05PM 45.1475 -121.3489 347° North 425 489 38,000  Level Seattle Center
05:06PM 45.2622 -121.3844 348° North 423 487 38,000  Level Seattle Center
05:07PM 45.3767 -121.4228 347° North 423 487 38,000  Level Seattle Center
05:08PM 45.4908 -121.4583 348° North 420 483 38,000  Level Seattle Center
05:09PM 45.6056 -121.4956 347° North 422 486 38,000  Level Seattle Center
05:10PM 45.7194 -121.5325 347° North 419 482 38,000  Level Seattle Center
05:11PM 45.8333 -121.5694 347° North 420 483 38,000  Level Seattle Center
05:12PM 45.9478 -121.6069 347° North 421 484 38,000  Level Seattle Center
05:13PM 46.0653 -121.6444 348° North 430 495 38,000  Level Seattle Center
05:14PM 46.1808 -121.6842 347° North 428 493 38,000  Level Seattle Center
05:15PM 46.3147 -121.7278 347° North 428 493 38,000  Level Seattle Center
05:16PM 46.4286 -121.7672 347° North 426 490 38,000 -300 Level Seattle Center
05:17PM 46.5442 -121.8047 347° North 431 496 37,500 -780 Descending Seattle Center
05:18PM 46.6581 -121.8442 347° North 429 494 36,500 -780 Descending Seattle Center
05:19PM 46.7733 -121.8828 347° North 431 496 36,000 -300 Descending Seattle Center
05:20PM 46.8892 -121.9208 347° North 432 497 36,000  Level Seattle Center
05:21PM 47.0039 -121.9600 347° North 430 495 36,000  Level Seattle Center
05:22PM 47.1381 -122.0061 347° North 419 482 36,000  Level Seattle Center
05:24PM 47.2489 -122.0439 347° North 416 479 36,000  Level Seattle Center
05:25PM 47.3600 -122.0825 347° North 416 479 36,000  Level Seattle Center
05:26PM 47.4708 -122.1206 347° North 416 479 36,000 -300 Level Seattle Center
05:27PM 47.5808 -122.1583 347° North 415 478 35,500 -1,380 Descending Seattle Center
05:28PM 47.6906 -122.1947 347° North 417 480 33,300 -2,520 Descending Seattle Center
05:29PM 47.8258 -122.2444 346° North 428 493 30,400 -2,520 Descending Seattle Center
05:30PM 47.9394 -122.2844 347° North 427 491 28,200 -2,340 Descending Seattle Center
05:31PM 48.0544 -122.3169 349° North 429 494 25,700 -2,400 Descending Seattle Center
05:32PM 48.1642 -122.3486 349° North 414 476 23,400 -2,280 Descending Seattle Center
05:33PM 48.2736 -122.3808 349° North 410 472 21,100 -2,220 Descending Seattle Center
05:34PM 48.3803 -122.4108 349° North 398 458 18,900 -2,400 Descending Seattle Center
05:35PM 48.5050 -122.4475 349° North 388 447 16,300 -2,340 Descending Seattle Center
05:36PM 48.6042 -122.4772 349° North 379 436 14,200 -2,040 Descending Seattle Center
05:37PM 48.6833 -122.4833 357° North 330 380 12,300 -1,380 Descending Vancouver Center
05:38PM 48.7333 -122.5833 307° West 300 345 11,500 -1,200 Descending Vancouver Center
05:39PM 48.7833 -122.6833 307° West 300 345 9,900 -1,560 Descending Vancouver Center
05:40PM 48.8333 -122.7833 307° West 290 334 8,400 -960 Descending Vancouver Center
05:41PM 48.8833 -122.8667 312° West 280 322 8,000 -420 Descending Vancouver Center
05:42PM 48.9500 -122.9167 334° Northwest 270 311 7,600 -1,200 Descending Vancouver Center
05:43PM 49.0167 -122.9167 360° North 270 311 5,600 -1,800 Descending Vancouver Center
05:44PM 49.0833 -122.9000 North 260 299 4,000 -1,440 Descending Vancouver Center
05:45PM 49.1500 -122.9000 360° North 220 253 2,800 -1,020 Descending Vancouver Center
05:46PM 49.1667 -122.9833 287° West 190 219 2,000 -840 Descending Vancouver Center